Terminal Aerodrome Forecast
Issued by NWS

Home | Current Version | Previous Version | Text Only | Print | Product List | Glossary On
Versions: 1 2 3 4 5 6 7 8 9 10 11 12 13 14 15 16 17 18 19
000
FTUS42 KTBW 020500 RRA
TAFPIE
TAF
KPIE 020542Z 0206/0306 05003KT P6SM SCT250
     FM021600 04005KT P6SM FEW020 SCT100 SCT250
     FM021800 29006KT P6SM VCTS SCT035CB BKN100
     FM022100 30006KT P6SM VCTS FEW035CB SCT100
     FM030000 35004KT P6SM FEW030 SCT100=

USA.gov is the U.S. government's official web portal to all federal, state and local government web resources and services.